South Ryegate, VT (05069)

1:53 AM EDT on September 02, 2015 (GMT -0400)
ROGERs Station | | Change Station
CLOSE
Current Station
Personal Weather Station
Location: Ryegate, VT
Elevation: 630 ft
Nearby Weather Stations

Elev 630 ft 44.20 °N, 72.07 °W | Updated 10 minutes ago

Clear
Clear
59.0 °F
Feels Like 59.0 °F
N
1.6
Wind Variable Wind from WNW

Today
High -- | Low -- °F
--% Chance of Precip.
Yesterday
High -- | Low -- °F
Precip. -- in
6:12 AM 7:23 PM
Waning Gibbous, 83% visible
Pressure 30.08 in
Visibility 0.2 miles
Clouds
Dew Point 59 °F
Humidity 99%
Rainfall 0.00 in
Snow Depth Not available.
UV Not available.
Pollen 8.20 out of 12
Air Quality Not available.
Flu Activity Not available.
METAR KMPV 020551Z AUTO 00000KT 1/4SM FG VV001 14/14 A3009 RMK AO2 SLP185 T01440139 10189 20139 58002
Pressure 30.08 in
Visibility 0.2 miles
Clouds
Dew Point 59 °F
Humidity 99%
Rainfall 0.00 in
Snow Depth Not available.
UV Not available.
Pollen 8.20 out of 12
Air Quality Not available.
Flu Activity Not available.
METAR KMPV 020551Z AUTO 00000KT 1/4SM FG VV001 14/14 A3009 RMK AO2 SLP185 T01440139 10189 20139 58002

10-Day Weather Forecast

×

Almanac

Astronomy

Sep. 02, 2015 Rise Set
Actual Time
Civil Twilight
Nautical Twilight
Astronomical Twilight
Moon
Length of Visible Light
Length of Day
Tomorrow will be .
, % of the Moon is Illuminated

Today's Extremes

State Highs State Lows

Community

WunderPhotos

Upload Photos

1,851,709 photos uploaded!

WunderBlogs® & News

Nearby

Air Quality

  Air Quality AQ Index Pollutant
Not available.

Snow Depth

Station Depth Elevation

Earthquake Activity

City Distance Mag. Time & Date
Minimum magnitude displayed is 2.5.

Coastal Water Temperatures

Place Temperature

Stations

Nearby Weather Stations

Station Location Temp. Windchill Dew Point Humidity Wind Precip. Elev Updated Type